CEB997 RPLL-RPMR
Flight info
| Callsign | CEB997 |
|---|---|
| Flight time | N/A |
| Altitude | 35000 |
| Route | VERDE2V VERDE A461 SAJ W3 IOO B472 COT W19 MELBY MELBY3P |
| Aircraft | A321/M-SDE3FGHIRWY/LB1 |
Departure
| Time | 2026-05-04 13:15 |
|---|---|
| Airport | Ninoy Aquino International Airport (RPLL) |
Arrival
| Time | N/A |
|---|---|
| Airport | General Santos International Airport (RPMR) |
| Time | Latitude | Longitude | Altitude | Speed | Heading |
|---|---|---|---|---|---|
| 2026-05-04 12:51 | 14.52417 | 121.00740 | 82 ft | 0 kts | 44° |
| 2026-05-04 13:04 | 14.52415 | 121.00738 | 82 ft | 2 kts | 45° |
| 2026-05-04 13:04 | 14.52405 | 121.00727 | 82 ft | 2 kts | 44° |
| 2026-05-04 13:04 | 14.52394 | 121.00716 | 82 ft | 2 kts | 45° |
| 2026-05-04 13:05 | 14.52383 | 121.00706 | 82 ft | 2 kts | 44° |
| 2026-05-04 13:05 | 14.52372 | 121.00695 | 82 ft | 2 kts | 44° |
| 2026-05-04 13:05 | 14.52359 | 121.00681 | 82 ft | 1 kts | 44° |
| 2026-05-04 13:05 | 14.52351 | 121.00674 | 82 ft | 2 kts | 13° |
| 2026-05-04 13:06 | 14.52341 | 121.00674 | 82 ft | 2 kts | 335° |
| 2026-05-04 13:06 | 14.52333 | 121.00681 | 82 ft | 1 kts | 313° |
| 2026-05-04 13:06 | 14.52332 | 121.00683 | 82 ft | 0 kts | 314° |
| 2026-05-04 13:10 | 14.52334 | 121.00680 | 82 ft | 3 kts | 315° |
| 2026-05-04 13:10 | 14.52366 | 121.00648 | 82 ft | 9 kts | 316° |
| 2026-05-04 13:10 | 14.52400 | 121.00615 | 82 ft | 10 kts | 316° |
| 2026-05-04 13:11 | 14.52473 | 121.00542 | 82 ft | 10 kts | 313° |
| 2026-05-04 13:11 | 14.52490 | 121.00506 | 82 ft | 7 kts | 277° |
| 2026-05-04 13:11 | 14.52469 | 121.00465 | 82 ft | 3 kts | 225° |
| 2026-05-04 13:11 | 14.52463 | 121.00459 | 82 ft | 0 kts | 225° |
| 2026-05-04 13:12 | 14.52460 | 121.00457 | 82 ft | 0 kts | 225° |
| 2026-05-04 13:12 | 14.52452 | 121.00449 | 82 ft | 1 kts | 224° |
| 2026-05-04 13:12 | 14.52406 | 121.00405 | 82 ft | 11 kts | 212° |
| 2026-05-04 13:13 | 14.52341 | 121.00428 | 82 ft | 10 kts | 135° |
| 2026-05-04 13:13 | 14.52288 | 121.00482 | 82 ft | 9 kts | 134° |
| 2026-05-04 13:13 | 14.52261 | 121.00511 | 82 ft | 7 kts | 134° |
| 2026-05-04 13:13 | 14.52252 | 121.00520 | 82 ft | 0 kts | 134° |
| 2026-05-04 13:14 | 14.52132 | 121.00646 | 82 ft | 63 kts | 134° |
| 2026-05-04 13:14 | 14.51639 | 121.01156 | 83 ft | 134 kts | 135° |
| 2026-05-04 13:15 | 14.50876 | 121.01932 | 353 ft | 163 kts | 135° |
| 2026-05-04 13:15 | 14.49815 | 121.02959 | 1368 ft | 153 kts | 135° |
| 2026-05-04 13:15 | 14.49304 | 121.03426 | 1883 ft | 144 kts | 135° |
| 2026-05-04 13:15 | 14.48550 | 121.04095 | 2193 ft | 148 kts | 135° |
| 2026-05-04 13:16 | 14.47457 | 121.05064 | 2490 ft | 161 kts | 135° |
| 2026-05-04 13:16 | 14.46569 | 121.05853 | 2724 ft | 173 kts | 135° |
| 2026-05-04 13:16 | 14.45952 | 121.06406 | 2881 ft | 181 kts | 135° |
| 2026-05-04 13:16 | 14.44966 | 121.07292 | 3120 ft | 193 kts | 135° |
| 2026-05-04 13:17 | 14.43490 | 121.08633 | 3312 ft | 225 kts | 135° |
| 2026-05-04 13:17 | 14.42643 | 121.09293 | 3532 ft | 238 kts | 148° |
| 2026-05-04 13:17 | 14.41018 | 121.09845 | 4027 ft | 250 kts | 164° |
| 2026-05-04 13:17 | 14.39321 | 121.10186 | 4662 ft | 253 kts | 166° |
| 2026-05-04 13:18 | 14.37571 | 121.10499 | 5288 ft | 256 kts | 167° |
| 2026-05-04 13:18 | 14.35786 | 121.10808 | 5923 ft | 259 kts | 167° |
| 2026-05-04 13:18 | 14.34022 | 121.11111 | 6542 ft | 261 kts | 167° |
| 2026-05-04 13:18 | 14.32216 | 121.11423 | 7177 ft | 263 kts | 167° |
| 2026-05-04 13:19 | 14.30406 | 121.11739 | 7786 ft | 265 kts | 167° |
| 2026-05-04 13:19 | 14.28583 | 121.12054 | 8365 ft | 267 kts | 167° |
| 2026-05-04 13:19 | 14.26122 | 121.12467 | 9117 ft | 271 kts | 171° |
| 2026-05-04 13:19 | 14.24198 | 121.12417 | 9663 ft | 276 kts | 184° |
| 2026-05-04 13:20 | 14.22289 | 121.12132 | 10209 ft | 278 kts | 186° |
| 2026-05-04 13:20 | 14.20362 | 121.11824 | 10742 ft | 280 kts | 186° |
| 2026-05-04 13:20 | 14.19070 | 121.11629 | 11107 ft | 281 kts | 185° |
| 2026-05-04 13:20 | 14.17139 | 121.11356 | 11641 ft | 282 kts | 185° |
| 2026-05-04 13:21 | 14.15176 | 121.11093 | 12157 ft | 283 kts | 185° |
| 2026-05-04 13:21 | 14.12552 | 121.10758 | 12824 ft | 286 kts | 185° |
| 2026-05-04 13:21 | 14.11224 | 121.10591 | 13149 ft | 287 kts | 185° |
| 2026-05-04 13:21 | 14.08577 | 121.10263 | 13771 ft | 290 kts | 185° |
| 2026-05-04 13:22 | 14.06560 | 121.10017 | 14239 ft | 292 kts | 184° |
| 2026-05-04 13:22 | 14.05206 | 121.09851 | 14550 ft | 293 kts | 185° |
| 2026-05-04 13:22 | 14.03186 | 121.09604 | 15012 ft | 294 kts | 184° |
| 2026-05-04 13:22 | 14.00466 | 121.09271 | 15595 ft | 296 kts | 184° |
| 2026-05-04 13:23 | 13.98392 | 121.09019 | 16030 ft | 298 kts | 184° |
| 2026-05-04 13:23 | 13.97004 | 121.08850 | 16309 ft | 299 kts | 184° |
| 2026-05-04 13:23 | 13.94933 | 121.08601 | 16713 ft | 301 kts | 184° |
| 2026-05-04 13:23 | 13.92860 | 121.08350 | 17107 ft | 302 kts | 184° |
| 2026-05-04 13:24 | 13.90049 | 121.08007 | 17605 ft | 306 kts | 184° |
| 2026-05-04 13:24 | 13.87867 | 121.07745 | 17791 ft | 317 kts | 184° |
| 2026-05-04 13:24 | 13.85628 | 121.07476 | 17966 ft | 327 kts | 184° |
| 2026-05-04 13:25 | 13.81763 | 121.07012 | 18259 ft | 343 kts | 184° |
| 2026-05-04 13:25 | 13.78542 | 121.06626 | 18477 ft | 355 kts | 184° |
| 2026-05-04 13:25 | 13.76077 | 121.06331 | 18631 ft | 364 kts | 184° |
| 2026-05-04 13:25 | 13.74316 | 121.06119 | 18744 ft | 370 kts | 184° |
| 2026-05-04 13:26 | 13.71724 | 121.05805 | 18930 ft | 377 kts | 184° |
| 2026-05-04 13:26 | 13.69079 | 121.05483 | 19253 ft | 380 kts | 185° |
| 2026-05-04 13:26 | 13.65556 | 121.05053 | 19734 ft | 382 kts | 185° |
| 2026-05-04 13:26 | 13.62917 | 121.04731 | 20081 ft | 384 kts | 184° |
| 2026-05-04 13:27 | 13.61112 | 121.04511 | 20319 ft | 385 kts | 184° |
| 2026-05-04 13:27 | 13.57545 | 121.04079 | 20776 ft | 387 kts | 185° |
| 2026-05-04 13:27 | 13.54861 | 121.03754 | 21116 ft | 388 kts | 185° |
| 2026-05-04 13:27 | 13.53060 | 121.03537 | 21342 ft | 389 kts | 184° |
| 2026-05-04 13:28 | 13.50353 | 121.03300 | 21677 ft | 390 kts | 181° |
| 2026-05-04 13:28 | 13.46702 | 121.03235 | 22123 ft | 391 kts | 178° |
| 2026-05-04 13:28 | 13.44875 | 121.03249 | 22350 ft | 392 kts | 178° |
| 2026-05-04 13:28 | 13.42158 | 121.03278 | 22671 ft | 394 kts | 178° |
| 2026-05-04 13:29 | 13.38450 | 121.03316 | 23050 ft | 397 kts | 178° |
| 2026-05-04 13:29 | 13.36628 | 121.03334 | 23239 ft | 399 kts | 178° |
| 2026-05-04 13:29 | 13.33833 | 121.03361 | 23537 ft | 401 kts | 178° |
| 2026-05-04 13:29 | 13.31002 | 121.03388 | 23845 ft | 403 kts | 178° |
| 2026-05-04 13:30 | 13.27244 | 121.03424 | 24242 ft | 405 kts | 178° |
| 2026-05-04 13:30 | 13.25355 | 121.03442 | 24444 ft | 406 kts | 178° |
| 2026-05-04 13:30 | 13.21600 | 121.03484 | 24833 ft | 409 kts | 178° |
| 2026-05-04 13:30 | 13.19683 | 121.03505 | 25024 ft | 410 kts | 178° |
| 2026-05-04 13:31 | 13.15837 | 121.03547 | 25395 ft | 413 kts | 178° |
| 2026-05-04 13:31 | 13.13911 | 121.03567 | 25574 ft | 414 kts | 178° |
| 2026-05-04 13:31 | 13.11045 | 121.03597 | 25844 ft | 416 kts | 178° |
| 2026-05-04 13:31 | 13.08106 | 121.03626 | 26108 ft | 419 kts | 178° |
| 2026-05-04 13:32 | 13.04193 | 121.03665 | 26451 ft | 421 kts | 178° |
| 2026-05-04 13:32 | 13.02230 | 121.03684 | 26621 ft | 422 kts | 178° |
| 2026-05-04 13:32 | 12.98276 | 121.03722 | 26962 ft | 425 kts | 178° |
| 2026-05-04 13:32 | 12.95342 | 121.03751 | 27215 ft | 426 kts | 178° |
| 2026-05-04 13:33 | 12.92319 | 121.03782 | 27465 ft | 428 kts | 178° |
| 2026-05-04 13:33 | 12.90323 | 121.03802 | 27629 ft | 429 kts | 178° |
| 2026-05-04 13:33 | 12.86333 | 121.03841 | 27948 ft | 432 kts | 178° |
| 2026-05-04 13:33 | 12.84299 | 121.03861 | 28114 ft | 433 kts | 178° |
| 2026-05-04 13:34 | 12.80266 | 121.03900 | 28429 ft | 435 kts | 178° |
| 2026-05-04 13:34 | 12.78258 | 121.03921 | 28574 ft | 436 kts | 178° |
| 2026-05-04 13:34 | 12.75200 | 121.03950 | 28798 ft | 438 kts | 178° |
| 2026-05-04 13:34 | 12.72146 | 121.03979 | 29028 ft | 440 kts | 178° |
| 2026-05-04 13:35 | 12.69056 | 121.04010 | 29259 ft | 441 kts | 178° |
| 2026-05-04 13:35 | 12.61809 | 121.04079 | 29772 ft | 446 kts | 179° |
| 2026-05-04 13:35 | 12.59736 | 121.04099 | 29917 ft | 447 kts | 178° |
| 2026-05-04 13:36 | 12.56649 | 121.04127 | 30131 ft | 448 kts | 179° |
| 2026-05-04 13:36 | 12.53487 | 121.04157 | 30356 ft | 449 kts | 179° |
| 2026-05-04 13:36 | 12.50356 | 121.04186 | 30578 ft | 451 kts | 179° |
| 2026-05-04 13:36 | 12.46196 | 121.04226 | 30953 ft | 450 kts | 179° |
| 2026-05-04 13:37 | 12.44086 | 121.04327 | 31178 ft | 448 kts | 174° |
| 2026-05-04 13:37 | 12.41013 | 121.04793 | 31501 ft | 447 kts | 167° |
| 2026-05-04 13:37 | 12.38015 | 121.05630 | 31796 ft | 446 kts | 161° |
| 2026-05-04 13:37 | 12.35144 | 121.06824 | 32055 ft | 446 kts | 154° |
| 2026-05-04 13:38 | 12.31555 | 121.08953 | 32406 ft | 445 kts | 145° |
| 2026-05-04 13:38 | 12.29090 | 121.10931 | 32693 ft | 445 kts | 138° |
| 2026-05-04 13:38 | 12.26812 | 121.13066 | 33010 ft | 444 kts | 137° |
| 2026-05-04 13:38 | 12.24580 | 121.15217 | 33312 ft | 444 kts | 136° |
| 2026-05-04 13:39 | 12.22335 | 121.17385 | 33566 ft | 445 kts | 136° |
| 2026-05-04 13:39 | 12.20809 | 121.18855 | 33723 ft | 445 kts | 137° |
| 2026-05-04 13:39 | 12.18571 | 121.21008 | 33944 ft | 446 kts | 137° |
| 2026-05-04 13:39 | 12.15536 | 121.23917 | 34236 ft | 448 kts | 137° |
| 2026-05-04 13:40 | 12.14027 | 121.25362 | 34381 ft | 448 kts | 137° |
| 2026-05-04 13:40 | 12.11758 | 121.27530 | 34607 ft | 449 kts | 137° |
| 2026-05-04 13:40 | 12.09458 | 121.29729 | 34829 ft | 449 kts | 137° |
| 2026-05-04 13:41 | 12.04894 | 121.34087 | 34922 ft | 450 kts | 137° |
| 2026-05-04 13:41 | 12.00294 | 121.38478 | 34918 ft | 450 kts | 137° |
| 2026-05-04 13:42 | 11.93391 | 121.45062 | 34912 ft | 457 kts | 137° |
| 2026-05-04 13:42 | 11.88707 | 121.49527 | 34916 ft | 466 kts | 137° |
| 2026-05-04 13:43 | 11.83112 | 121.54858 | 34918 ft | 472 kts | 137° |
| 2026-05-04 13:43 | 11.79082 | 121.58695 | 34915 ft | 471 kts | 137° |
| 2026-05-04 13:44 | 11.74309 | 121.63236 | 34915 ft | 471 kts | 137° |
| 2026-05-04 13:44 | 11.69499 | 121.67813 | 34918 ft | 471 kts | 137° |
| 2026-05-04 13:45 | 11.64669 | 121.72406 | 34920 ft | 472 kts | 137° |
| 2026-05-04 13:45 | 11.59866 | 121.76971 | 34918 ft | 472 kts | 137° |
| 2026-05-04 13:46 | 11.55085 | 121.81512 | 34915 ft | 472 kts | 137° |
| 2026-05-04 13:46 | 11.49464 | 121.86845 | 34917 ft | 472 kts | 137° |
| 2026-05-04 13:47 | 11.45465 | 121.90642 | 34914 ft | 471 kts | 137° |
| 2026-05-04 13:47 | 11.40666 | 121.95197 | 34916 ft | 471 kts | 137° |
| 2026-05-04 13:48 | 11.35851 | 121.99764 | 34917 ft | 470 kts | 137° |
| 2026-05-04 13:48 | 11.30262 | 122.05061 | 34925 ft | 471 kts | 137° |
| 2026-05-04 13:49 | 11.25454 | 122.09616 | 34941 ft | 471 kts | 137° |
| 2026-05-04 13:49 | 11.21466 | 122.13392 | 34955 ft | 471 kts | 137° |
| 2026-05-04 13:50 | 11.16664 | 122.17935 | 34975 ft | 470 kts | 137° |
| 2026-05-04 13:50 | 11.11858 | 122.22481 | 34997 ft | 470 kts | 137° |
| 2026-05-04 13:51 | 11.07070 | 122.27009 | 35017 ft | 470 kts | 137° |
| 2026-05-04 13:51 | 11.02275 | 122.31539 | 35012 ft | 470 kts | 137° |
| 2026-05-04 13:52 | 10.95087 | 122.38321 | 34979 ft | 471 kts | 137° |
| 2026-05-04 13:53 | 10.89433 | 122.43620 | 34948 ft | 471 kts | 138° |
| 2026-05-04 13:53 | 10.85187 | 122.47096 | 34934 ft | 470 kts | 143° |
| 2026-05-04 13:54 | 10.76880 | 122.52329 | 34916 ft | 469 kts | 152° |
| 2026-05-04 13:55 | 10.67966 | 122.56599 | 34919 ft | 469 kts | 154° |
| 2026-05-04 13:55 | 10.59085 | 122.60787 | 34920 ft | 468 kts | 154° |
| 2026-05-04 13:56 | 10.53181 | 122.63577 | 34919 ft | 468 kts | 154° |
| 2026-05-04 13:57 | 10.44262 | 122.67790 | 34918 ft | 469 kts | 154° |
| 2026-05-04 13:58 | 10.32445 | 122.73368 | 34919 ft | 469 kts | 154° |
| 2026-05-04 13:58 | 10.23575 | 122.77552 | 34923 ft | 468 kts | 154° |
| 2026-05-04 13:59 | 10.17623 | 122.80357 | 34934 ft | 468 kts | 154° |
| 2026-05-04 14:00 | 10.07775 | 122.85001 | 34952 ft | 468 kts | 154° |
| 2026-05-04 14:00 | 9.99879 | 122.88719 | 34974 ft | 469 kts | 154° |
| 2026-05-04 14:01 | 9.93964 | 122.91502 | 34987 ft | 468 kts | 154° |
| 2026-05-04 14:02 | 9.84108 | 122.96136 | 35007 ft | 467 kts | 154° |
| 2026-05-04 14:02 | 9.79190 | 122.98449 | 35014 ft | 466 kts | 154° |
| 2026-05-04 14:03 | 9.73371 | 123.01188 | 35019 ft | 466 kts | 154° |
| 2026-05-04 14:03 | 9.66503 | 123.04418 | 35005 ft | 468 kts | 154° |
| 2026-05-04 14:04 | 9.58600 | 123.08129 | 34987 ft | 468 kts | 154° |
| 2026-05-04 14:04 | 9.52686 | 123.10905 | 34974 ft | 468 kts | 154° |
| 2026-05-04 14:05 | 9.44794 | 123.14610 | 34958 ft | 468 kts | 154° |
| 2026-05-04 14:06 | 9.37874 | 123.17855 | 34948 ft | 468 kts | 154° |
| 2026-05-04 14:06 | 9.31988 | 123.20613 | 34943 ft | 468 kts | 154° |
| 2026-05-04 14:07 | 9.26047 | 123.23397 | 34943 ft | 467 kts | 154° |
| 2026-05-04 14:07 | 9.20141 | 123.26163 | 34939 ft | 468 kts | 154° |
| 2026-05-04 14:08 | 9.14257 | 123.28919 | 34934 ft | 468 kts | 154° |
| 2026-05-04 14:08 | 9.08311 | 123.31704 | 34927 ft | 468 kts | 154° |
| 2026-05-04 14:09 | 8.99453 | 123.35855 | 34919 ft | 468 kts | 154° |
| 2026-05-04 14:10 | 8.90560 | 123.40018 | 34918 ft | 468 kts | 154° |
| 2026-05-04 14:10 | 8.84634 | 123.42790 | 34920 ft | 469 kts | 154° |
| 2026-05-04 14:11 | 8.80667 | 123.44645 | 34922 ft | 469 kts | 154° |